Time;durP1;ratioP1;P1;durP2;ratioP2;P2;SDS_P1;SDS_P2;PMS_P1;PMS_P2;Temp;Humidity;BMP_temperature;BMP_pressure;BME280_temperature;BME280_humidity;BME280_pressure;Samples;Min_cycle;Max_cycle;Signal;HPM_P1;HPM_P2
2022/02/20 00:02:19;;;;;;;11.07;6.43;;;3.60;92.30;;;;;;5037444;28;20172;-90
2022/02/20 00:04:45;;;;;;;10.27;5.83;;;3.60;92.30;;;;;;5037853;28;20176;-90
2022/02/20 00:07:11;;;;;;;10.57;6.17;;;3.60;92.30;;;;;;5037416;28;20196;-90
2022/02/20 00:09:39;;;;;;;11.87;6.83;;;3.60;92.40;;;;;;5055280;28;20243;-90
2022/02/20 00:12:04;;;;;;;9.83;6.03;;;3.60;92.50;;;;;;5037242;28;20692;-90
2022/02/20 00:14:30;;;;;;;13.30;6.80;;;3.60;92.60;;;;;;5037099;28;20196;-90
2022/02/20 00:16:56;;;;;;;6.80;5.13;;;3.50;92.50;;;;;;5037141;28;20553;-90
2022/02/20 00:19:21;;;;;;;11.23;5.90;;;3.50;92.50;;;;;;5055294;28;20607;-90
2022/02/20 00:21:47;;;;;;;6.03;5.00;;;3.60;92.40;;;;;;5036155;28;20190;-91
2022/02/20 00:24:12;;;;;;;11.00;5.17;;;3.50;92.30;;;;;;5037201;28;20559;-90
2022/02/20 00:26:39;;;;;;;13.07;5.60;;;3.50;92.40;;;;;;5055215;28;20160;-90
2022/02/20 00:29:05;;;;;;;9.80;5.40;;;3.50;92.50;;;;;;5054925;28;20253;-90
2022/02/20 00:31:30;;;;;;;7.73;5.50;;;3.50;92.50;;;;;;5054774;28;20535;-90
2022/02/20 00:33:56;;;;;;;6.63;5.10;;;3.50;92.60;;;;;;5037936;28;20196;-90
2022/02/20 00:36:21;;;;;;;7.37;5.13;;;3.50;92.60;;;;;;5054889;28;20302;-90
2022/02/20 00:38:47;;;;;;;8.13;4.90;;;3.50;92.60;;;;;;5036963;28;20723;-90
2022/02/20 00:41:13;;;;;;;6.33;4.30;;;3.40;92.50;;;;;;5037279;28;20262;-90
2022/02/20 00:43:38;;;;;;;4.17;3.53;;;3.40;92.50;;;;;;5037328;28;20180;-90
2022/02/20 00:46:04;;;;;;;7.37;3.83;;;3.40;92.40;;;;;;5036816;28;20650;-90
2022/02/20 00:48:30;;;;;;;10.33;3.80;;;3.40;92.30;;;;;;5036385;28;20218;-90
2022/02/20 00:50:55;;;;;;;4.17;3.80;;;3.40;92.30;;;;;;5036769;28;20650;-91
2022/02/20 00:53:21;;;;;;;8.43;4.50;;;3.40;92.30;;;;;;5036657;28;20253;-91
2022/02/20 00:55:47;;;;;;;6.23;4.13;;;3.40;92.40;;;;;;5054334;28;20175;-91
2022/02/20 00:58:12;;;;;;;4.40;4.00;;;3.40;92.50;;;;;;5036318;28;20227;-90
2022/02/20 01:00:38;;;;;;;8.20;4.80;;;3.30;92.50;;;;;;5036325;28;20263;-90
2022/02/20 01:03:04;;;;;;;5.70;4.33;;;3.30;92.40;;;;;;5054267;28;20215;-90
2022/02/20 01:05:29;;;;;;;5.17;4.40;;;3.40;92.50;;;;;;5036238;28;20186;-90
2022/02/20 01:07:55;;;;;;;7.23;4.70;;;3.30;92.60;;;;;;5036730;28;20699;-90
2022/02/20 01:10:20;;;;;;;5.33;4.63;;;3.30;92.60;;;;;;5036218;28;20211;-90
2022/02/20 01:12:46;;;;;;;5.50;4.97;;;3.30;92.60;;;;;;5036381;28;20212;-90
2022/02/20 01:15:13;;;;;;;11.27;5.43;;;3.30;92.70;;;;;;5036293;28;20634;-91
2022/02/20 01:17:39;;;;;;;7.00;5.07;;;3.30;92.70;;;;;;5036228;28;20215;-90
2022/02/20 01:20:05;;;;;;;11.13;5.30;;;3.30;92.70;;;;;;5036238;28;20196;-90
2022/02/20 01:22:31;;;;;;;9.40;6.13;;;3.30;92.70;;;;;;5036308;28;20195;-90
2022/02/20 01:24:56;;;;;;;7.20;5.37;;;3.40;92.60;;;;;;5036226;28;20179;-91
2022/02/20 01:27:23;;;;;;;5.90;4.53;;;3.40;92.40;;;;;;5035818;28;20192;-91
2022/02/20 01:29:49;;;;;;;6.03;4.53;;;3.30;92.30;;;;;;5053511;28;20168;-91
2022/02/20 01:32:15;;;;;;;5.57;4.83;;;3.30;92.30;;;;;;5053758;28;20180;-92
2022/02/20 01:34:41;;;;;;;6.53;4.60;;;3.30;92.20;;;;;;5035682;28;20250;-90
2022/02/20 01:37:07;;;;;;;5.33;4.70;;;3.30;92.30;;;;;;5053259;28;20229;-90
2022/02/20 01:39:32;;;;;;;5.30;4.53;;;3.30;92.30;;;;;;5035516;28;20179;-91
2022/02/20 01:41:58;;;;;;;7.73;4.50;;;3.30;92.40;;;;;;5035499;28;20233;-91
2022/02/20 01:44:24;;;;;;;4.93;4.37;;;3.40;92.40;;;;;;5036432;28;20184;-91
2022/02/20 01:46:50;;;;;;;6.00;4.23;;;3.40;92.30;;;;;;5035397;28;20184;-89
2022/02/20 01:49:18;;;;;;;8.70;5.37;;;3.30;92.20;;;;;;5053695;28;20184;-91
2022/02/20 01:51:44;;;;;;;7.23;4.83;;;3.30;92.10;;;;;;5035851;28;20176;-90
2022/02/20 01:54:10;;;;;;;4.93;4.53;;;3.30;92.10;;;;;;5035552;28;20203;-90
2022/02/20 01:56:36;;;;;;;6.37;5.10;;;3.30;92.00;;;;;;5053666;28;20660;-90
2022/02/20 01:59:04;;;;;;;9.00;5.40;;;3.30;92.10;;;;;;5035554;28;20222;-91
2022/02/20 02:01:30;;;;;;;5.77;5.27;;;3.40;92.10;;;;;;5035634;28;20179;-91
2022/02/20 02:03:55;;;;;;;5.80;5.30;;;3.30;92.10;;;;;;5053868;28;20184;-90
2022/02/20 02:06:21;;;;;;;5.67;5.13;;;3.30;92.10;;;;;;5053289;28;20281;-91
2022/02/20 02:08:47;;;;;;;5.57;5.07;;;3.30;92.10;;;;;;5035321;28;20199;-91
2022/02/20 02:11:13;;;;;;;5.63;5.23;;;3.30;92.10;;;;;;5053222;28;20178;-91
2022/02/20 02:13:39;;;;;;;6.10;5.60;;;3.30;92.10;;;;;;5035311;28;20669;-90
2022/02/20 02:16:05;;;;;;;9.43;6.00;;;3.30;92.10;;;;;;5053239;28;20648;-90
2022/02/20 02:18:31;;;;;;;7.10;6.20;;;3.30;92.20;;;;;;5053137;28;20278;-90
2022/02/20 02:20:56;;;;;;;8.90;5.90;;;3.30;92.10;;;;;;5035471;28;20188;-90
2022/02/20 02:23:22;;;;;;;7.63;6.23;;;3.20;92.20;;;;;;5035533;28;20180;-90
2022/02/20 02:25:49;;;;;;;7.93;6.63;;;3.20;92.20;;;;;;5035487;28;20187;-90
2022/02/20 02:28:15;;;;;;;7.50;6.63;;;3.10;92.40;;;;;;5035211;28;20204;-90
2022/02/20 02:30:41;;;;;;;8.00;6.73;;;3.20;92.50;;;;;;5035563;28;20178;-90
2022/02/20 02:33:06;;;;;;;7.60;6.80;;;3.20;92.60;;;;;;5035981;28;20686;-90
2022/02/20 02:35:32;;;;;;;12.67;7.40;;;3.20;92.60;;;;;;5035653;28;20753;-90
2022/02/20 02:37:58;;;;;;;7.43;6.73;;;3.20;92.70;;;;;;5035221;28;20614;-91
2022/02/20 02:40:24;;;;;;;9.33;6.90;;;3.20;92.70;;;;;;5035378;28;20207;-90
2022/02/20 02:42:51;;;;;;;9.63;7.60;;;3.20;92.70;;;;;;5035230;28;20230;-91
2022/02/20 02:45:17;;;;;;;7.47;6.77;;;3.30;92.80;;;;;;5054621;28;20179;-90
2022/02/20 02:47:46;;;;;;;8.93;8.03;;;3.30;92.80;;;;;;5039056;28;20203;-90
2022/02/20 02:50:12;;;;;;;8.70;7.83;;;3.20;92.80;;;;;;5038864;28;20191;-91
2022/02/20 02:52:38;;;;;;;8.77;7.87;;;3.20;92.80;;;;;;5038720;28;20552;-90
2022/02/20 02:55:05;;;;;;;10.37;8.10;;;3.20;92.70;;;;;;5038874;28;20183;-90
2022/02/20 02:57:31;;;;;;;9.73;8.57;;;3.20;92.80;;;;;;5038730;28;20282;-91
2022/02/20 02:59:58;;;;;;;12.77;8.13;;;3.20;92.80;;;;;;5039186;28;20176;-91
2022/02/20 03:02:24;;;;;;;9.70;8.70;;;3.20;92.80;;;;;;5039464;28;20172;-90
2022/02/20 03:04:49;;;;;;;10.80;9.73;;;3.20;92.90;;;;;;5038721;28;20291;-90
2022/02/20 03:07:15;;;;;;;11.47;10.33;;;3.20;92.80;;;;;;5038597;28;20191;-90
2022/02/20 03:09:40;;;;;;;12.43;10.60;;;3.30;92.80;;;;;;5056439;28;20168;-91
2022/02/20 03:12:08;;;;;;;11.87;10.77;;;3.30;92.90;;;;;;5056669;28;20179;-91
2022/02/20 03:14:34;;;;;;;13.27;11.23;;;3.30;92.90;;;;;;5038661;28;20203;-91
2022/02/20 03:16:59;;;;;;;12.33;10.90;;;3.30;92.90;;;;;;5038416;28;20188;-91
2022/02/20 03:19:25;;;;;;;11.80;10.63;;;3.30;92.90;;;;;;5038362;28;20206;-91
2022/02/20 03:21:50;;;;;;;12.57;11.27;;;3.30;92.90;;;;;;5056142;28;20186;-90
2022/02/20 03:24:16;;;;;;;13.43;12.13;;;3.30;92.90;;;;;;5038434;28;20195;-91
2022/02/20 03:26:41;;;;;;;21.00;13.63;;;3.30;92.90;;;;;;5038093;28;20183;-90
2022/02/20 03:29:07;;;;;;;15.10;12.53;;;3.30;92.90;;;;;;5038432;28;20200;-91
2022/02/20 03:31:33;;;;;;;17.63;13.10;;;3.30;92.90;;;;;;5038146;28;20207;-91
2022/02/20 03:33:58;;;;;;;17.97;13.77;;;3.30;92.90;;;;;;5037850;28;20242;-91
2022/02/20 03:36:24;;;;;;;15.83;13.90;;;3.30;93.00;;;;;;5055812;28;20180;-91
2022/02/20 03:38:50;;;;;;;17.23;15.60;;;3.30;93.00;;;;;;5055996;28;20224;-90
2022/02/20 03:41:16;;;;;;;16.60;14.33;;;3.30;93.00;;;;;;5037780;28;20677;-91
2022/02/20 03:43:41;;;;;;;17.63;15.47;;;3.30;93.00;;;;;;5037906;28;20666;-90
2022/02/20 03:46:07;;;;;;;17.27;15.47;;;3.30;93.00;;;;;;5037701;28;20552;-91
2022/02/20 03:48:32;;;;;;;17.30;15.30;;;3.30;93.00;;;;;;5055619;28;20196;-91
2022/02/20 03:50:58;;;;;;;17.30;15.53;;;3.30;93.10;;;;;;5037760;28;20288;-91
2022/02/20 03:53:24;;;;;;;17.60;13.83;;;3.30;93.10;;;;;;5055499;28;20215;-90
2022/02/20 03:55:49;;;;;;;22.10;18.67;;;3.30;93.10;;;;;;5037442;28;20179;-91
2022/02/20 03:58:15;;;;;;;21.03;18.20;;;3.30;93.20;;;;;;5037298;28;20246;-90
2022/02/20 04:00:40;;;;;;;22.23;17.83;;;3.30;93.20;;;;;;5055497;28;20657;-90
2022/02/20 04:03:06;;;;;;;20.57;18.20;;;3.30;93.20;;;;;;5055202;28;20176;-91
2022/02/20 04:05:32;;;;;;;22.33;17.93;;;3.30;93.30;;;;;;5037321;28;20176;-90
2022/02/20 04:07:57;;;;;;;23.77;18.87;;;3.30;93.30;;;;;;5037477;28;20206;-91
2022/02/20 04:10:23;;;;;;;24.37;17.90;;;3.30;93.30;;;;;;5037311;28;20172;-90
2022/02/20 04:12:49;;;;;;;23.60;19.00;;;3.30;93.30;;;;;;5037490;28;20751;-90
2022/02/20 04:15:16;;;;;;;22.70;18.07;;;3.30;93.40;;;;;;5055584;28;20168;-90
2022/02/20 04:17:46;;;;;;;24.43;19.77;;;3.30;93.50;;;;;;5055054;28;20204;-91
2022/02/20 04:20:15;;;;;;;27.17;19.57;;;3.30;93.50;;;;;;5037166;28;20530;-90
2022/02/20 04:22:41;;;;;;;26.20;21.20;;;3.30;93.60;;;;;;5054823;28;20661;-90
2022/02/20 04:25:08;;;;;;;26.57;21.63;;;3.30;93.60;;;;;;5054825;28;20176;-90
2022/02/20 04:27:33;;;;;;;25.57;20.33;;;3.30;93.60;;;;;;5036994;28;20195;-91
2022/02/20 04:29:59;;;;;;;27.57;21.90;;;3.30;93.60;;;;;;5036816;28;20175;-91
2022/02/20 04:32:24;;;;;;;25.37;21.13;;;3.30;93.60;;;;;;5037029;28;20188;-91
2022/02/20 04:34:50;;;;;;;24.90;19.97;;;3.20;93.50;;;;;;5054986;28;20266;-90
2022/02/20 04:37:15;;;;;;;22.47;18.67;;;3.20;93.50;;;;;;5036796;28;20199;-91
2022/02/20 04:39:41;;;;;;;20.93;17.70;;;3.20;93.50;;;;;;5036893;28;20190;-91
2022/02/20 04:42:07;;;;;;;25.27;18.37;;;3.20;93.50;;;;;;5036784;28;20230;-91
2022/02/20 04:44:32;;;;;;;20.80;16.40;;;3.10;93.40;;;;;;5036745;28;20187;-90
2022/02/20 04:46:58;;;;;;;23.50;18.13;;;3.10;93.40;;;;;;5036753;28;20186;-90
2022/02/20 04:49:23;;;;;;;20.07;15.90;;;3.20;93.40;;;;;;5036703;28;20176;-90
2022/02/20 04:51:50;;;;;;;20.30;14.83;;;3.10;93.40;;;;;;5036937;28;20211;-91
2022/02/20 04:54:16;;;;;;;22.27;17.93;;;3.10;93.40;;;;;;5036427;28;20783;-90
2022/02/20 04:56:42;;;;;;;19.20;15.07;;;3.10;93.40;;;;;;5036521;28;20176;-91
2022/02/20 04:59:12;;;;;;;21.80;17.43;;;3.10;93.40;;;;;;5036361;28;20200;-90
2022/02/20 05:01:38;;;;;;;24.57;16.37;;;3.00;93.50;;;;;;5036426;28;20265;-90
2022/02/20 05:04:05;;;;;;;21.00;16.90;;;3.00;93.50;;;;;;5054059;28;20660;-90
2022/02/20 05:06:31;;;;;;;20.83;16.57;;;3.10;93.50;;;;;;5036247;28;20181;-91
2022/02/20 05:08:57;;;;;;;22.17;16.37;;;3.00;93.60;;;;;;5053307;28;20290;-90
2022/02/20 05:11:24;;;;;;;19.73;15.10;;;3.00;93.60;;;;;;5036488;28;20183;-90
2022/02/20 05:13:50;;;;;;;22.67;16.67;;;3.00;93.70;;;;;;5036375;28;20731;-90
2022/02/20 05:16:16;;;;;;;24.37;16.33;;;3.00;93.70;;;;;;5036303;28;20198;-90
2022/02/20 05:18:42;;;;;;;22.13;16.20;;;3.00;93.70;;;;;;5053739;28;20195;-91
2022/02/20 05:21:08;;;;;;;22.10;15.17;;;3.10;93.70;;;;;;5036000;28;20189;-90
2022/02/20 05:23:33;;;;;;;19.23;14.70;;;3.10;93.70;;;;;;5036108;28;20188;-90
2022/02/20 05:26:01;;;;;;;18.67;13.53;;;3.10;93.80;;;;;;5036048;28;20263;-90
2022/02/20 05:28:27;;;;;;;18.37;12.97;;;3.10;93.70;;;;;;5035975;28;20676;-90
2022/02/20 05:30:52;;;;;;;15.63;13.03;;;3.10;93.70;;;;;;5036044;28;20180;-90
2022/02/20 05:33:18;;;;;;;14.33;11.73;;;3.10;93.70;;;;;;5053444;28;20253;-90
2022/02/20 05:35:43;;;;;;;18.07;12.27;;;3.20;93.70;;;;;;5035730;28;20181;-91
2022/02/20 05:38:10;;;;;;;16.43;11.03;;;3.20;93.70;;;;;;5053382;28;20195;-90
2022/02/20 05:40:36;;;;;;;15.90;10.73;;;3.20;93.70;;;;;;5053467;28;20179;-90
2022/02/20 05:43:02;;;;;;;10.90;9.00;;;3.20;93.60;;;;;;5035541;28;20713;-90
2022/02/20 05:45:27;;;;;;;19.60;11.93;;;3.30;93.60;;;;;;5053635;28;20168;-90
2022/02/20 05:47:53;;;;;;;15.73;10.77;;;3.20;93.50;;;;;;5035512;28;20228;-90
2022/02/20 05:50:19;;;;;;;13.67;10.97;;;3.20;93.50;;;;;;5053326;28;20234;-90
2022/02/20 05:52:44;;;;;;;14.97;11.17;;;3.20;93.50;;;;;;5035348;28;20226;-90
2022/02/20 05:55:10;;;;;;;13.23;9.93;;;3.10;93.60;;;;;;5035523;28;20176;-89
2022/02/20 05:57:43;;;;;;;16.53;11.47;;;3.20;93.60;;;;;;5035348;28;20842;-90
2022/02/20 06:00:09;;;;;;;16.37;10.93;;;3.20;93.60;;;;;;5035594;28;20176;-90
2022/02/20 06:02:35;;;;;;;15.00;12.03;;;3.20;93.60;;;;;;5053109;28;20176;-90
2022/02/20 06:05:01;;;;;;;16.60;12.37;;;3.20;93.60;;;;;;5035493;28;20183;-90
2022/02/20 06:07:27;;;;;;;13.93;9.43;;;3.30;93.60;;;;;;5053248;28;20196;-90
2022/02/20 06:09:52;;;;;;;15.47;11.17;;;3.30;93.50;;;;;;5053756;28;20681;-90
2022/02/20 06:12:18;;;;;;;15.40;9.63;;;3.30;93.50;;;;;;5035242;28;20210;-90
2022/02/20 06:14:43;;;;;;;18.17;12.50;;;3.30;93.40;;;;;;5035133;28;20211;-90
2022/02/20 06:17:09;;;;;;;19.40;14.60;;;3.30;93.40;;;;;;5035446;28;20533;-91
2022/02/20 06:19:35;;;;;;;19.10;14.07;;;3.30;93.40;;;;;;5053315;28;20285;-90
2022/02/20 06:22:01;;;;;;;20.70;14.27;;;3.30;93.40;;;;;;5039597;28;20176;-90
2022/02/20 06:24:26;;;;;;;17.87;13.87;;;3.30;93.40;;;;;;5057076;28;20194;-90
2022/02/20 06:26:52;;;;;;;20.57;14.60;;;3.30;93.40;;;;;;5039168;28;20186;-90
2022/02/20 06:29:17;;;;;;;20.40;13.60;;;3.30;93.40;;;;;;5039124;28;20644;-90
2022/02/20 06:31:43;;;;;;;12.73;9.40;;;3.30;93.40;;;;;;5039431;28;20271;-90
2022/02/20 06:34:09;;;;;;;19.93;15.07;;;3.30;93.50;;;;;;5038817;28;20546;-90
2022/02/20 06:36:35;;;;;;;19.20;13.20;;;3.20;93.40;;;;;;5038985;28;20187;-90
2022/02/20 06:39:02;;;;;;;22.13;14.97;;;3.20;93.50;;;;;;5056871;28;20201;-90
2022/02/20 06:41:27;;;;;;;21.70;16.07;;;3.20;93.50;;;;;;5056902;28;20180;-90
2022/02/20 06:43:53;;;;;;;20.93;15.07;;;3.10;93.50;;;;;;5038853;28;20275;-90
2022/02/20 06:46:18;;;;;;;19.50;13.93;;;3.20;93.60;;;;;;5056793;28;20319;-90
2022/02/20 06:48:44;;;;;;;18.20;12.37;;;3.20;93.60;;;;;;5038835;28;20615;-90
2022/02/20 06:51:09;;;;;;;10.30;8.57;;;3.10;93.60;;;;;;5039372;28;20627;-90
2022/02/20 06:53:36;;;;;;;12.23;7.77;;;3.10;93.60;;;;;;5038680;28;20573;-90
2022/02/20 06:56:01;;;;;;;17.80;10.97;;;3.10;93.50;;;;;;5056710;28;20224;-90
2022/02/20 06:58:27;;;;;;;7.70;6.53;;;3.20;93.50;;;;;;5038591;28;20281;-90
2022/02/20 07:00:52;;;;;;;12.47;9.03;;;3.20;93.40;;;;;;5038818;28;20186;-90
2022/02/20 07:03:18;;;;;;;13.20;10.27;;;3.20;93.40;;;;;;5038597;28;20172;-90
2022/02/20 07:05:44;;;;;;;14.17;10.37;;;3.20;93.40;;;;;;5038460;28;20176;-90
2022/02/20 07:08:09;;;;;;;9.77;8.00;;;3.20;93.40;;;;;;5038381;28;20234;-90
2022/02/20 07:10:35;;;;;;;12.20;7.10;;;3.20;93.40;;;;;;5038608;28;20658;-90
2022/02/20 07:13:00;;;;;;;10.13;7.43;;;3.20;93.30;;;;;;5056195;28;20199;-90
2022/02/20 07:15:26;;;;;;;12.17;8.57;;;3.20;93.20;;;;;;5038253;28;20175;-91
2022/02/20 07:17:52;;;;;;;9.50;8.07;;;3.20;93.10;;;;;;5038441;28;20217;-90
2022/02/20 07:20:18;;;;;;;15.37;8.17;;;3.20;93.00;;;;;;5055942;28;20195;-89
2022/02/20 07:22:44;;;;;;;8.70;6.87;;;3.20;92.90;;;;;;5038346;28;20176;-89
2022/02/20 07:25:09;;;;;;;5.33;4.80;;;3.20;92.70;;;;;;5039185;28;20176;-90
2022/02/20 07:27:45;;;;;;;6.73;5.47;;;3.20;92.70;;;;;;5038872;28;20198;-90
2022/02/20 07:30:13;;;;;;;10.60;7.47;;;3.20;92.80;;;;;;5038115;28;20160;-91
2022/02/20 07:32:39;;;;;;;6.97;6.23;;;3.20;92.80;;;;;;5055679;28;20179;-90
2022/02/20 07:35:06;;;;;;;11.23;8.73;;;3.40;92.70;;;;;;5037813;28;20172;-91
2022/02/20 07:37:32;;;;;;;10.40;8.87;;;3.30;92.50;;;;;;5037639;28;20696;-90
2022/02/20 07:39:58;;;;;;;10.20;8.47;;;3.30;92.50;;;;;;5037767;28;20183;-89
2022/02/20 07:42:24;;;;;;;8.57;6.33;;;3.30;92.40;;;;;;5037690;28;20176;-90
2022/02/20 07:44:51;;;;;;;7.77;5.57;;;3.30;92.20;;;;;;5055708;28;20172;-89
2022/02/20 07:47:16;;;;;;;6.30;5.50;;;3.30;92.10;;;;;;5037374;28;20206;-90
2022/02/20 07:49:42;;;;;;;4.97;4.47;;;3.30;92.00;;;;;;5037636;28;20198;-90
2022/02/20 07:52:07;;;;;;;8.97;7.23;;;3.30;91.90;;;;;;5037454;28;20238;-90
2022/02/20 07:54:33;;;;;;;6.93;5.63;;;3.30;91.80;;;;;;5037449;28;20219;-90
2022/02/20 07:56:59;;;;;;;11.30;5.53;;;3.30;91.80;;;;;;5038254;28;20179;-90
2022/02/20 07:59:25;;;;;;;6.40;5.80;;;3.30;91.80;;;;;;5037307;28;20182;-90
2022/02/20 08:01:52;;;;;;;6.47;4.40;;;3.30;91.60;;;;;;5055112;28;20169;-90
2022/02/20 08:04:17;;;;;;;7.70;6.83;;;3.30;91.50;;;;;;5037305;28;20191;-90
2022/02/20 08:06:43;;;;;;;14.03;9.60;;;3.30;91.40;;;;;;5054965;28;20191;-89
2022/02/20 08:09:08;;;;;;;10.53;7.40;;;3.30;91.40;;;;;;5037125;28;20211;-90
2022/02/20 08:11:34;;;;;;;11.00;8.50;;;3.30;91.30;;;;;;5037033;28;20187;-89
2022/02/20 08:14:00;;;;;;;9.83;7.17;;;3.30;91.30;;;;;;5036988;28;20203;-90
2022/02/20 08:16:26;;;;;;;9.70;7.13;;;3.30;91.20;;;;;;5037369;28;20204;-90
2022/02/20 08:18:52;;;;;;;4.60;4.00;;;3.30;91.00;;;;;;5037145;28;20222;-89
2022/02/20 08:21:18;;;;;;;8.03;6.83;;;3.30;90.70;;;;;;5037026;28;20649;-90
2022/02/20 08:23:45;;;;;;;5.13;4.67;;;3.30;90.70;;;;;;5036795;28;20184;-90
2022/02/20 08:26:10;;;;;;;5.10;4.60;;;3.30;90.70;;;;;;5054676;28;20258;-89
2022/02/20 08:28:37;;;;;;;6.87;5.47;;;3.30;90.90;;;;;;5054593;28;20337;-89
2022/02/20 08:31:03;;;;;;;7.40;5.90;;;3.30;90.70;;;;;;5036628;28;20187;-89
2022/02/20 08:33:28;;;;;;;6.87;5.60;;;3.30;91.00;;;;;;5037003;28;20569;-89
2022/02/20 08:35:54;;;;;;;7.67;6.03;;;3.30;91.20;;;;;;5036826;28;20180;-89
2022/02/20 08:38:22;;;;;;;6.37;5.27;;;3.30;91.40;;;;;;5054581;28;20203;-90
2022/02/20 08:40:49;;;;;;;5.77;5.07;;;3.20;91.70;;;;;;5037434;28;20625;-92
2022/02/20 08:43:16;;;;;;;6.00;5.40;;;3.20;91.80;;;;;;5035830;28;20185;-89
2022/02/20 08:46:00;;;;;;;5.10;4.60;;;3.20;92.00;;;;;;5036422;28;20214;-89
2022/02/20 08:48:25;;;;;;;7.43;6.47;;;3.20;92.20;;;;;;5054149;28;20230;-89
2022/02/20 08:50:51;;;;;;;5.73;5.17;;;3.10;92.30;;;;;;5037083;28;20603;-89
2022/02/20 08:53:16;;;;;;;6.90;5.60;;;3.10;92.30;;;;;;5036221;28;20212;-89
2022/02/20 08:55:42;;;;;;;6.27;5.67;;;3.10;92.30;;;;;;5036486;28;20185;-89
2022/02/20 08:58:08;;;;;;;5.97;5.37;;;3.10;92.40;;;;;;5036301;28;20289;-89
2022/02/20 09:00:34;;;;;;;7.00;6.30;;;3.10;92.40;;;;;;5036374;28;20215;-89
2022/02/20 09:03:00;;;;;;;10.23;5.53;;;3.10;92.50;;;;;;5036092;28;20621;-89
2022/02/20 09:05:25;;;;;;;6.83;6.10;;;3.10;92.50;;;;;;5036049;28;20262;-89
2022/02/20 09:07:51;;;;;;;6.37;5.77;;;3.10;92.50;;;;;;5054062;28;20286;-89
2022/02/20 09:10:16;;;;;;;7.53;5.90;;;3.10;92.50;;;;;;5035847;28;20221;-89
2022/02/20 09:12:42;;;;;;;11.93;7.73;;;3.10;92.60;;;;;;5035851;28;20186;-90
2022/02/20 09:15:09;;;;;;;9.53;8.00;;;3.10;92.70;;;;;;5036217;28;20238;-90
2022/02/20 09:17:36;;;;;;;6.67;5.97;;;3.10;92.70;;;;;;5035973;28;20207;-90
2022/02/20 09:20:03;;;;;;;9.80;8.57;;;3.10;92.70;;;;;;5035974;28;20190;-89
2022/02/20 09:22:28;;;;;;;7.43;6.53;;;3.10;92.80;;;;;;5035764;28;20174;-90
2022/02/20 09:24:55;;;;;;;9.40;7.70;;;3.00;92.80;;;;;;5035833;28;20198;-90
2022/02/20 09:27:21;;;;;;;9.27;6.60;;;3.10;92.70;;;;;;5035742;28;20209;-92
2022/02/20 09:29:47;;;;;;;10.27;8.43;;;3.00;92.80;;;;;;5054287;28;20247;-91
2022/02/20 09:32:12;;;;;;;10.80;8.37;;;3.00;92.90;;;;;;5054283;28;20208;-90
2022/02/20 09:34:38;;;;;;;8.93;8.00;;;3.00;92.80;;;;;;5035751;28;20256;-90
2022/02/20 09:37:04;;;;;;;6.43;5.73;;;3.00;92.80;;;;;;5035972;28;20551;-90
2022/02/20 09:39:30;;;;;;;10.13;8.70;;;3.00;92.70;;;;;;5036682;28;20183;-90
2022/02/20 09:41:57;;;;;;;7.63;6.00;;;3.00;92.80;;;;;;5035670;28;20600;-90
2022/02/20 09:44:23;;;;;;;8.40;7.27;;;3.00;92.80;;;;;;5035554;28;20237;-90
2022/02/20 09:46:49;;;;;;;10.93;7.93;;;3.00;92.80;;;;;;5035493;28;20180;-90
2022/02/20 09:49:14;;;;;;;8.53;6.97;;;2.90;92.70;;;;;;5035285;28;20199;-90
2022/02/20 09:51:40;;;;;;;10.37;8.27;;;2.90;92.90;;;;;;5053152;28;20172;-90
2022/02/20 09:54:06;;;;;;;7.70;6.27;;;2.90;93.00;;;;;;5052769;28;20697;-90
2022/02/20 09:56:31;;;;;;;6.30;5.60;;;2.90;93.00;;;;;;5035237;28;20178;-90
2022/02/20 09:58:58;;;;;;;7.37;6.17;;;2.90;93.00;;;;;;5035359;28;20601;-90
2022/02/20 10:01:23;;;;;;;8.67;5.47;;;2.80;92.90;;;;;;5053116;28;20179;-90
2022/02/20 10:03:49;;;;;;;10.93;5.17;;;2.80;93.10;;;;;;5035449;28;20190;-90
2022/02/20 10:06:25;;;;;;;8.63;7.67;;;2.80;93.00;;;;;;5052955;28;20182;-91
2022/02/20 10:08:55;;;;;;;7.90;7.13;;;2.80;93.00;;;;;;5035393;28;20213;-91
2022/02/20 10:11:29;;;;;;;6.43;5.23;;;2.90;93.10;;;;;;5035241;28;20178;-90
2022/02/20 10:14:12;;;;;;;6.57;5.53;;;2.90;93.20;;;;;;5035893;28;20203;-90
2022/02/20 10:16:38;;;;;;;7.10;6.40;;;2.90;93.30;;;;;;5035618;28;20235;-90
2022/02/20 10:19:04;;;;;;;6.93;6.23;;;2.90;93.40;;;;;;5035092;28;20227;-91
2022/02/20 10:21:33;;;;;;;5.80;4.47;;;2.90;93.30;;;;;;5035323;28;20179;-91
2022/02/20 10:24:13;;;;;;;5.40;4.90;;;2.90;93.30;;;;;;5053046;28;20210;-90
2022/02/20 10:26:48;;;;;;;6.27;5.67;;;3.00;93.40;;;;;;5035361;28;20195;-90
2022/02/20 10:29:21;;;;;;;7.07;6.00;;;2.90;93.50;;;;;;5035191;28;20204;-91
2022/02/20 10:32:00;;;;;;;7.53;5.90;;;2.90;93.50;;;;;;5036062;28;20172;-90
2022/02/20 10:34:28;;;;;;;5.90;5.00;;;2.90;93.50;;;;;;5034962;28;20256;-90
2022/02/20 10:36:55;;;;;;;4.20;3.90;;;3.00;93.60;;;;;;5035133;28;20181;-91
2022/02/20 10:39:29;;;;;;;5.03;4.33;;;3.00;93.60;;;;;;5052741;28;20228;-90
2022/02/20 10:41:57;;;;;;;5.53;4.30;;;3.10;93.50;;;;;;5035241;28;20182;-90
2022/02/20 10:44:23;;;;;;;4.77;4.30;;;3.10;93.60;;;;;;5034849;28;20204;-91
2022/02/20 10:47:07;;;;;;;6.43;5.83;;;3.20;93.60;;;;;;5035049;28;20223;-90
2022/02/20 10:49:33;;;;;;;5.13;4.63;;;3.20;93.60;;;;;;5035068;28;20175;-90
2022/02/20 10:51:59;;;;;;;5.00;4.60;;;3.20;93.60;;;;;;5034824;28;20180;-89
2022/02/20 10:54:24;;;;;;;6.60;5.90;;;3.20;93.60;;;;;;5052546;28;20562;-90
2022/02/20 10:56:50;;;;;;;3.53;3.23;;;3.30;93.80;;;;;;5034847;28;20172;-89
2022/02/20 10:59:20;;;;;;;10.27;4.17;;;3.30;93.80;;;;;;5052820;28;20708;-90
2022/02/20 11:01:46;;;;;;;6.73;6.13;;;3.40;93.90;;;;;;5034827;28;20608;-90
2022/02/20 11:04:13;;;;;;;6.07;5.53;;;3.50;94.00;;;;;;5034859;28;20220;-91
2022/02/20 11:06:40;;;;;;;7.73;6.60;;;3.60;94.10;;;;;;5036877;28;20258;-89
2022/02/20 11:09:07;;;;;;;6.03;5.43;;;3.70;94.20;;;;;;5038503;28;20196;-89
2022/02/20 11:11:39;;;;;;;6.13;5.53;;;3.80;94.20;;;;;;5056141;28;20646;-89
2022/02/20 11:14:16;;;;;;;8.10;6.27;;;3.80;94.30;;;;;;5038310;28;20210;-90
2022/02/20 11:16:46;;;;;;;4.50;4.13;;;3.90;94.40;;;;;;5038518;28;20187;-90
2022/02/20 11:19:15;;;;;;;6.53;5.87;;;4.00;94.40;;;;;;5037958;28;20230;-89
2022/02/20 11:21:43;;;;;;;5.13;4.63;;;4.00;94.50;;;;;;5056113;28;20259;-90
2022/02/20 11:24:10;;;;;;;6.60;5.63;;;4.20;94.60;;;;;;5055883;28;20175;-90
2022/02/20 11:26:38;;;;;;;5.03;4.60;;;4.30;94.60;;;;;;5038175;28;20183;-90
2022/02/20 11:29:04;;;;;;;9.33;8.00;;;4.40;94.60;;;;;;5037780;28;20211;-89
2022/02/20 11:31:30;;;;;;;6.37;5.07;;;4.60;94.70;;;;;;5038143;28;20299;-89
2022/02/20 11:33:57;;;;;;;6.30;5.63;;;4.60;94.60;;;;;;5037839;28;20204;-89
2022/02/20 11:36:26;;;;;;;6.60;5.97;;;4.70;94.60;;;;;;5037935;28;20184;-89
2022/02/20 11:39:10;;;;;;;5.30;4.80;;;4.80;94.60;;;;;;5037911;28;20234;-90
2022/02/20 11:41:38;;;;;;;5.87;5.27;;;4.90;94.70;;;;;;5038664;28;20181;-90
2022/02/20 11:44:16;;;;;;;10.93;5.90;;;5.00;94.70;;;;;;5038427;28;20183;-90
2022/02/20 11:46:49;;;;;;;8.03;5.87;;;5.20;94.70;;;;;;5037904;28;20228;-90
2022/02/20 11:49:17;;;;;;;7.87;6.03;;;5.30;94.80;;;;;;5037574;28;20252;-91
2022/02/20 11:52:15;;;;;;;5.47;4.73;;;5.30;94.90;;;;;;5055261;28;20177;-90
2022/02/20 11:54:41;;;;;;;5.97;5.33;;;5.40;95.00;;;;;;5000759;28;20308;-88
2022/02/20 11:57:12;;;;;;;8.07;6.63;;;5.50;95.00;;;;;;5037683;28;20265;-88
2022/02/20 12:00:05;;;;;;;9.03;6.17;;;5.60;95.00;;;;;;5055234;28;20198;-88
2022/02/20 12:02:31;;;;;;;8.00;7.23;;;5.70;95.10;;;;;;5044507;28;20189;-88
2022/02/20 12:04:56;;;;;;;8.80;6.73;;;5.70;95.10;;;;;;5037176;28;20180;-89
2022/02/20 12:07:41;;;;;;;10.77;6.70;;;5.80;95.20;;;;;;5037225;28;20726;-88
2022/02/20 12:10:28;;;;;;;9.23;8.33;;;5.90;95.30;;;;;;5037227;28;20177;-89
2022/02/20 12:12:56;;;;;;;6.47;5.83;;;6.00;95.20;;;;;;5054902;28;20557;-89
2022/02/20 12:15:26;;;;;;;8.23;7.43;;;6.20;95.30;;;;;;5037669;28;20273;-89
2022/02/20 12:18:19;;;;;;;7.30;6.60;;;6.30;95.30;;;;;;5036671;28;20224;-89
2022/02/20 12:20:56;;;;;;;11.63;6.83;;;6.40;95.20;;;;;;5036964;28;20201;-89
2022/02/20 12:23:36;;;;;;;8.77;6.70;;;6.40;95.30;;;;;;5054932;28;20698;-89
2022/02/20 12:26:05;;;;;;;8.50;7.57;;;6.60;95.30;;;;;;5037079;28;20198;-89
2022/02/20 12:28:38;;;;;;;5.70;5.20;;;6.60;95.30;;;;;;5054510;28;20205;-90
2022/02/20 12:31:13;;;;;;;9.13;7.77;;;6.70;95.30;;;;;;5036814;28;20203;-89
2022/02/20 12:33:45;;;;;;;8.10;6.33;;;6.80;95.30;;;;;;5037739;28;20213;-89
2022/02/20 12:36:12;;;;;;;9.57;6.87;;;6.90;95.30;;;;;;5036613;28;20164;-89
2022/02/20 12:39:00;;;;;;;8.13;7.30;;;6.90;95.30;;;;;;5036715;28;20198;-89
2022/02/20 12:41:27;;;;;;;8.73;7.33;;;7.00;95.30;;;;;;5054568;28;20187;-89
2022/02/20 12:43:55;;;;;;;7.23;6.50;;;7.00;95.30;;;;;;5036385;28;20175;-89
2022/02/20 12:46:21;;;;;;;9.47;7.33;;;7.20;95.40;;;;;;5036462;28;20221;-89
2022/02/20 12:48:47;;;;;;;7.57;6.83;;;7.10;95.30;;;;;;5036228;28;20199;-88
2022/02/20 12:51:14;;;;;;;5.43;4.63;;;7.20;95.40;;;;;;5054147;28;20172;-89